createdAt,value
2023-05-19T00:01:25.218Z,102121.84
2023-05-19T00:03:57.941Z,102123.78
2023-05-19T00:06:32.239Z,102130.41
2023-05-19T00:09:08.000Z,102129.31
2023-05-19T00:11:40.331Z,102122.09
2023-05-19T00:14:11.271Z,102123.75
2023-05-19T00:16:42.982Z,102128.72
2023-05-19T00:19:13.178Z,102125.66
2023-05-19T00:21:43.416Z,102129.25
2023-05-19T00:24:13.713Z,102124.81
2023-05-19T00:26:43.923Z,102128.09
2023-05-19T00:29:18.642Z,102124.50
2023-05-19T00:31:48.955Z,102134.13
2023-05-19T00:34:17.319Z,102120.31
2023-05-19T00:36:45.738Z,102124.72
2023-05-19T00:39:14.273Z,102120.59
2023-05-19T00:41:42.772Z,102123.34
2023-05-19T00:44:11.032Z,102126.66
2023-05-19T00:46:39.488Z,102125.81
2023-05-19T00:49:07.842Z,102124.69
2023-05-19T00:51:37.371Z,102126.88
2023-05-19T00:54:05.419Z,102127.13
2023-05-19T00:56:33.852Z,102128.25
2023-05-19T00:59:01.725Z,102122.69
2023-05-19T01:01:29.158Z,102122.09
2023-05-19T01:03:59.353Z,102128.69
2023-05-19T01:06:29.807Z,102127.56
2023-05-19T01:08:57.624Z,102133.34
2023-05-19T01:11:25.747Z,102130.31
2023-05-19T01:13:54.156Z,102122.53
2023-05-19T01:17:12.049Z,102125.31
2023-05-19T01:20:22.232Z,102119.75
2023-05-19T01:23:37.027Z,102109.78
2023-05-19T01:26:49.651Z,102119.94
2023-05-19T01:30:28.837Z,102120.75
2023-05-19T01:33:06.886Z,102120.78
2023-05-19T01:35:40.550Z,102127.16
2023-05-19T01:38:17.683Z,102121.91
2023-05-19T01:40:51.411Z,102132.13
2023-05-19T01:43:27.277Z,102123.28
2023-05-19T01:45:59.140Z,102116.09
2023-05-19T01:48:31.026Z,102113.91
2023-05-19T01:51:01.293Z,102119.16
2023-05-19T01:53:31.712Z,102119.69
2023-05-19T01:56:01.951Z,102127.66
2023-05-19T01:58:58.658Z,102118.50
2023-05-19T02:01:54.496Z,102125.09
2023-05-19T02:04:57.712Z,102123.69
2023-05-19T02:07:52.592Z,102122.59
2023-05-19T02:10:32.015Z,102126.94
2023-05-19T02:13:11.432Z,102131.03
2023-05-19T02:15:43.887Z,102121.63
2023-05-19T02:18:18.195Z,102125.44
2023-05-19T02:20:48.768Z,102118.53
2023-05-19T02:23:18.924Z,102119.06
2023-05-19T02:25:49.180Z,102116.81
2023-05-19T02:28:19.756Z,102117.09
2023-05-19T02:30:49.926Z,102121.47
2023-05-19T02:33:20.273Z,102124.97
2023-05-19T02:35:50.934Z,102124.16
2023-05-19T02:38:21.580Z,102123.59
2023-05-19T02:40:54.747Z,102118.31
2023-05-19T02:43:24.884Z,102122.19
2023-05-19T02:45:55.108Z,102116.69
2023-05-19T02:48:25.315Z,102108.97
2023-05-19T02:50:55.527Z,102117.56
2023-05-19T02:53:25.821Z,102119.78
2023-05-19T02:55:56.038Z,102114.53
2023-05-19T02:58:26.196Z,102115.63
2023-05-19T03:00:56.330Z,102109.59
2023-05-19T03:03:24.694Z,102107.81
2023-05-19T03:05:53.904Z,102109.81
2023-05-19T03:08:21.338Z,102119.22
2023-05-19T03:10:51.467Z,102105.75
2023-05-19T03:13:21.704Z,102107.13
2023-05-19T03:15:51.926Z,102104.38
2023-05-19T03:18:24.800Z,102107.13
2023-05-19T03:20:55.121Z,102103.78
2023-05-19T03:23:25.304Z,102107.91
2023-05-19T03:25:56.452Z,102106.81
2023-05-19T03:28:29.675Z,102107.69
2023-05-19T03:30:58.178Z,102112.09
2023-05-19T03:33:30.137Z,102101.91
2023-05-19T03:36:00.350Z,102114.06
2023-05-19T03:38:30.585Z,102114.09
2023-05-19T03:41:00.769Z,102106.06
2023-05-19T03:43:31.028Z,102110.50
2023-05-19T03:46:02.426Z,102108.59
2023-05-19T03:48:32.767Z,102108.94
2023-05-19T03:51:04.543Z,102105.34
2023-05-19T03:53:35.265Z,102105.97
2023-05-19T03:56:07.718Z,102104.03
2023-05-19T03:58:41.004Z,102107.94
2023-05-19T04:01:14.305Z,102109.63
2023-05-19T04:03:44.527Z,102104.41
2023-05-19T04:06:14.774Z,102106.66
2023-05-19T04:08:44.953Z,102101.97
2023-05-19T04:11:15.180Z,102108.09
2023-05-19T04:13:45.415Z,102110.31
2023-05-19T04:16:15.769Z,102112.81
2023-05-19T04:18:46.602Z,102110.09
2023-05-19T04:21:16.952Z,102108.44
2023-05-19T04:23:47.090Z,102107.66
2023-05-19T04:26:18.216Z,102110.16
2023-05-19T04:28:49.050Z,102100.75
2023-05-19T04:31:21.792Z,102110.47
2023-05-19T04:33:53.677Z,102117.94
2023-05-19T04:36:24.141Z,102115.16
2023-05-19T04:38:55.045Z,102117.41
2023-05-19T04:41:23.205Z,102120.16
2023-05-19T04:43:51.307Z,102121.53
2023-05-19T04:46:24.547Z,102122.66
2023-05-19T04:48:57.300Z,102127.34
2023-05-19T04:51:31.519Z,102131.78
2023-05-19T04:54:01.891Z,102129.03
2023-05-19T04:56:32.061Z,102134.84
2023-05-19T04:59:02.317Z,102132.63
2023-05-19T05:01:34.025Z,102129.59
2023-05-19T05:04:04.671Z,102119.91
2023-05-19T05:06:34.899Z,102120.22
2023-05-19T05:09:05.124Z,102128.78
2023-05-19T05:11:36.017Z,102119.38
2023-05-19T05:14:06.748Z,102121.84
2023-05-19T05:16:37.725Z,102126.00
2023-05-19T05:19:08.536Z,102128.22
2023-05-19T05:21:39.209Z,102120.72
2023-05-19T05:24:11.350Z,102125.75
2023-05-19T05:26:43.060Z,102126.00
2023-05-19T05:29:13.176Z,102130.66
2023-05-19T05:31:43.366Z,102125.66
2023-05-19T05:34:14.558Z,102132.03
2023-05-19T05:36:44.764Z,102130.59
2023-05-19T05:39:14.949Z,102130.00
2023-05-19T05:41:44.975Z,102129.97
2023-05-19T05:44:15.183Z,102128.84
2023-05-19T05:46:46.298Z,102123.78
2023-05-19T05:49:16.275Z,102128.19
2023-05-19T05:52:01.553Z,102130.91
2023-05-19T05:54:35.646Z,102125.81
2023-05-19T05:57:06.747Z,102120.75
2023-05-19T05:59:36.896Z,102125.56
2023-05-19T06:02:07.730Z,102127.31
2023-05-19T06:04:37.976Z,102119.56
2023-05-19T06:07:08.528Z,102120.88
2023-05-19T06:09:38.729Z,102116.56
2023-05-19T06:12:11.417Z,102117.31
2023-05-19T06:14:39.243Z,102117.53
2023-05-19T06:17:07.763Z,102133.34
2023-05-19T06:19:36.207Z,102121.97
2023-05-19T06:22:04.856Z,102120.75
2023-05-19T06:24:35.712Z,102128.88
2023-05-19T06:27:06.770Z,102126.84
2023-05-19T06:29:37.005Z,102133.97
2023-05-19T06:32:07.241Z,102118.38
2023-05-19T06:34:38.514Z,102128.94
2023-05-19T06:37:06.300Z,102118.00
2023-05-19T06:39:35.190Z,102119.34
2023-05-19T06:42:04.009Z,102118.19
2023-05-19T06:44:34.188Z,102120.84
2023-05-19T06:47:04.784Z,102126.47
2023-05-19T06:49:33.390Z,102117.72
2023-05-19T06:52:01.989Z,102122.47
2023-05-19T06:54:30.894Z,102127.94
2023-05-19T06:56:59.102Z,102125.88
2023-05-19T06:59:27.556Z,102129.09
2023-05-19T07:01:56.308Z,102129.53
2023-05-19T07:04:24.546Z,102130.56
2023-05-19T07:06:53.635Z,102131.34
2023-05-19T07:09:21.465Z,102135.91
2023-05-19T07:11:49.789Z,102136.41
2023-05-19T07:14:18.588Z,102132.34
2023-05-19T07:16:47.158Z,102137.88
2023-05-19T07:19:15.706Z,102131.94
2023-05-19T07:21:44.165Z,102131.28
2023-05-19T07:24:12.651Z,102133.13
2023-05-19T07:26:41.672Z,102137.28
2023-05-19T07:29:11.891Z,102131.13
2023-05-19T07:31:42.091Z,102134.97
2023-05-19T07:34:12.310Z,102127.41
2023-05-19T07:36:42.537Z,102133.66
2023-05-19T07:39:12.908Z,102126.69
2023-05-19T07:41:43.281Z,102129.78
2023-05-19T07:44:13.446Z,102121.22
2023-05-19T07:46:43.652Z,102123.38
2023-05-19T07:49:10.914Z,102126.25
2023-05-19T07:51:38.115Z,102120.69
2023-05-19T07:54:08.620Z,102114.31
2023-05-19T07:56:39.580Z,102122.47
2023-05-19T07:59:08.442Z,102113.44
2023-05-19T08:01:36.604Z,102105.00
2023-05-19T08:04:06.185Z,102116.50
2023-05-19T08:06:36.397Z,102111.00
2023-05-19T08:09:06.696Z,102118.13
2023-05-19T08:11:37.206Z,102112.00
2023-05-19T08:14:07.444Z,102115.28
2023-05-19T08:16:37.705Z,102114.78
2023-05-19T08:19:07.987Z,102128.00
2023-05-19T08:21:38.324Z,102115.69
2023-05-19T08:24:09.434Z,102125.28
2023-05-19T08:26:39.675Z,102123.16
2023-05-19T08:29:09.879Z,102120.34
2023-05-19T08:31:40.136Z,102126.03
2023-05-19T08:34:10.436Z,102118.59
2023-05-19T08:36:42.029Z,102121.00
2023-05-19T08:39:14.113Z,102120.69
2023-05-19T08:41:44.692Z,102117.56
2023-05-19T08:44:17.516Z,102120.72
2023-05-19T08:46:53.438Z,102117.97
2023-05-19T08:49:47.642Z,102122.34
2023-05-19T08:52:53.115Z,102115.50
2023-05-19T08:55:36.822Z,102111.81
2023-05-19T08:58:10.047Z,102105.00
2023-05-19T09:00:39.189Z,102093.16
2023-05-19T09:03:18.215Z,102099.53
2023-05-19T09:05:52.815Z,102095.91
2023-05-19T09:08:21.297Z,102082.41
2023-05-19T09:10:49.407Z,102085.50
2023-05-19T09:13:17.860Z,102081.06
2023-05-19T09:15:48.018Z,102082.97
2023-05-19T09:18:18.293Z,102077.69
2023-05-19T09:20:47.354Z,102074.75
2023-05-19T09:23:18.617Z,102076.47
2023-05-19T09:25:52.600Z,102074.25
2023-05-19T09:28:40.763Z,102062.75
2023-05-19T09:31:12.033Z,102066.16
2023-05-19T09:33:45.903Z,102064.75
2023-05-19T09:36:16.690Z,102048.16
2023-05-19T09:38:46.885Z,102071.38
2023-05-19T09:41:17.350Z,102067.22
2023-05-19T09:43:56.493Z,102062.41
2023-05-19T09:46:30.451Z,102065.81
2023-05-19T09:49:00.972Z,102066.59
2023-05-19T09:51:32.161Z,102055.63
2023-05-19T09:54:02.945Z,102063.19
2023-05-19T09:56:35.895Z,102049.69
2023-05-19T09:59:07.428Z,102049.25
2023-05-19T10:01:41.770Z,102049.78
2023-05-19T10:04:14.947Z,102037.81
2023-05-19T10:06:46.389Z,102036.88
2023-05-19T10:09:18.181Z,102039.13
2023-05-19T10:11:51.706Z,102034.97
2023-05-19T10:14:30.654Z,102039.38
2023-05-19T10:17:01.001Z,102031.84
2023-05-19T10:19:31.336Z,102037.91
2023-05-19T10:22:01.574Z,102039.78
2023-05-19T10:24:31.954Z,102036.16
2023-05-19T10:27:14.896Z,102037.28
2023-05-19T10:29:54.438Z,102032.91
2023-05-19T10:32:32.915Z,102036.28
2023-05-19T10:35:40.631Z,102033.00
2023-05-19T10:38:35.245Z,102033.28
2023-05-19T10:41:34.590Z,102038.75
2023-05-19T10:44:50.828Z,102030.06
2023-05-19T10:47:28.441Z,102039.25
2023-05-19T10:50:01.665Z,102032.63
2023-05-19T10:52:38.736Z,102024.91
2023-05-19T10:55:17.933Z,102019.81
2023-05-19T10:57:58.832Z,102017.94
2023-05-19T11:00:32.109Z,102010.69
2023-05-19T11:06:28.113Z,102016.94
2023-05-19T11:09:19.533Z,102009.19
2023-05-19T11:11:54.157Z,102023.56
2023-05-19T11:14:27.634Z,102017.94
2023-05-19T11:17:01.052Z,102013.00
2023-05-19T11:19:36.368Z,102006.38
2023-05-19T11:22:13.286Z,102008.09
2023-05-19T11:24:52.450Z,102009.88
2023-05-19T11:27:38.631Z,102001.81
2023-05-19T11:30:11.660Z,101994.66
2023-05-19T11:32:42.756Z,101994.81
2023-05-19T11:35:12.164Z,101985.47
2023-05-19T11:37:43.172Z,101990.34
2023-05-19T11:40:16.047Z,101989.59
2023-05-19T11:42:46.349Z,101986.28
2023-05-19T11:45:14.446Z,101988.38
2023-05-19T11:48:01.371Z,101988.06
2023-05-19T11:50:33.518Z,101994.63
2023-05-19T11:53:04.635Z,101991.38
2023-05-19T11:55:35.379Z,101988.41
2023-05-19T11:58:06.113Z,101991.38
2023-05-19T12:00:41.919Z,101987.19
2023-05-19T12:03:13.264Z,101994.66
2023-05-19T12:05:50.226Z,101994.97
2023-05-19T12:08:21.782Z,102001.44
2023-05-19T12:10:53.206Z,101996.56
2023-05-19T12:13:23.780Z,101999.13
2023-05-19T12:15:53.981Z,101988.59
2023-05-19T12:18:29.734Z,101986.09
2023-05-19T12:21:00.107Z,101987.03
2023-05-19T12:23:30.956Z,101985.84
2023-05-19T12:26:01.125Z,101983.88
2023-05-19T12:28:31.570Z,101991.50
2023-05-19T12:31:03.368Z,101979.59
2023-05-19T12:33:35.685Z,101984.81
2023-05-19T12:36:07.877Z,101977.28
2023-05-19T12:38:39.732Z,101972.53
2023-05-19T12:41:13.136Z,101983.28
2023-05-19T12:43:43.346Z,101978.59
2023-05-19T12:46:16.794Z,101970.78
2023-05-19T12:48:48.388Z,101962.03
2023-05-19T12:51:21.936Z,101965.13
2023-05-19T12:53:52.360Z,101956.44
2023-05-19T12:56:27.165Z,101958.94
2023-05-19T12:58:57.315Z,101963.94
2023-05-19T13:01:29.767Z,101959.88
2023-05-19T13:04:00.298Z,101958.47
2023-05-19T13:06:30.710Z,101964.78
2023-05-19T13:09:00.941Z,101954.94
2023-05-19T13:11:31.126Z,101956.44
2023-05-19T13:14:01.300Z,101965.56
2023-05-19T13:16:31.486Z,101956.97
2023-05-19T13:19:01.847Z,101957.66
2023-05-19T13:21:32.033Z,101958.03
2023-05-19T13:24:04.019Z,101950.00
2023-05-19T13:26:35.093Z,101948.84
2023-05-19T13:29:06.053Z,101948.22
2023-05-19T13:31:36.596Z,101950.81
2023-05-19T13:34:07.184Z,101946.31
2023-05-19T13:36:37.384Z,101947.31
2023-05-19T13:39:07.584Z,101940.66
2023-05-19T13:41:38.589Z,101933.25
2023-05-19T13:44:08.812Z,101935.22
2023-05-19T13:46:45.699Z,101942.91
2023-05-19T13:49:17.144Z,101949.44
2023-05-19T13:51:47.423Z,101948.72
2023-05-19T13:54:18.520Z,101954.22
2023-05-19T13:56:48.968Z,101962.91
2023-05-19T13:59:19.209Z,101964.75
2023-05-19T14:01:49.522Z,101957.84
2023-05-19T14:04:20.294Z,101961.09
2023-05-19T14:06:50.977Z,101958.66
2023-05-19T14:09:21.401Z,101944.84
2023-05-19T14:11:51.628Z,101936.03
2023-05-19T14:14:21.794Z,101942.13
2023-05-19T14:16:51.990Z,101940.03
2023-05-19T14:19:23.221Z,101950.69
2023-05-19T14:21:53.501Z,101947.22
2023-05-19T14:24:23.840Z,101938.78
2023-05-19T14:26:54.240Z,101948.63
2023-05-19T14:29:24.474Z,101936.63
2023-05-19T14:31:54.632Z,101938.59
2023-05-19T14:34:24.947Z,101945.88
2023-05-19T14:36:55.252Z,101944.38
2023-05-19T14:39:25.438Z,101953.06
2023-05-19T14:41:56.436Z,101951.13
2023-05-19T14:44:24.042Z,101957.38
2023-05-19T14:46:52.566Z,101964.75
2023-05-19T14:49:20.874Z,101960.78
2023-05-19T14:51:49.313Z,101951.63
2023-05-19T14:54:17.755Z,101955.84
2023-05-19T14:56:46.545Z,101955.97
2023-05-19T14:59:14.971Z,101949.59
2023-05-19T15:01:43.480Z,101943.50
2023-05-19T15:04:11.880Z,101942.78
2023-05-19T15:06:40.320Z,101946.41
2023-05-19T15:09:08.751Z,101949.09
2023-05-19T15:11:38.973Z,101947.25
2023-05-19T15:14:09.162Z,101959.13
2023-05-19T15:16:39.402Z,101944.28
2023-05-19T15:19:09.646Z,101956.34
2023-05-19T15:21:40.019Z,101948.97
2023-05-19T15:24:10.308Z,101947.66
2023-05-19T15:26:40.616Z,101942.13
2023-05-19T15:29:10.891Z,101951.88
2023-05-19T15:31:41.574Z,101949.56
2023-05-19T15:34:11.953Z,101953.53
2023-05-19T15:36:42.202Z,101948.06
2023-05-19T15:39:12.670Z,101946.63
2023-05-19T15:41:42.935Z,101937.56
2023-05-19T15:44:13.129Z,101932.94
2023-05-19T15:46:43.440Z,101941.34
2023-05-19T15:49:13.899Z,101942.25
2023-05-19T15:51:45.328Z,101938.38
2023-05-19T15:54:15.618Z,101939.47
2023-05-19T15:56:45.887Z,101943.00
2023-05-19T15:59:16.054Z,101939.41
2023-05-19T16:01:46.719Z,101941.47
2023-05-19T16:04:17.943Z,101936.41
2023-05-19T16:06:48.196Z,101937.44
2023-05-19T16:09:18.370Z,101940.25
2023-05-19T16:11:48.694Z,101942.19
2023-05-19T16:14:18.915Z,101940.88
2023-05-19T16:16:49.262Z,101937.94
2023-05-19T16:19:19.585Z,101929.28
2023-05-19T16:21:50.214Z,101933.47
2023-05-19T16:24:20.451Z,101928.16
2023-05-19T16:26:53.301Z,101919.84
2023-05-19T16:29:23.476Z,101920.94
2023-05-19T16:31:53.714Z,101917.47
2023-05-19T16:34:23.991Z,101924.50
2023-05-19T16:36:54.207Z,101933.03
2023-05-19T16:39:24.428Z,101928.81
2023-05-19T16:41:54.611Z,101927.97
2023-05-19T16:44:25.824Z,101931.16
2023-05-19T16:46:55.971Z,101929.53
2023-05-19T16:49:26.199Z,101929.94
2023-05-19T16:51:56.866Z,101927.38
2023-05-19T16:54:28.757Z,101927.94
2023-05-19T16:56:58.934Z,101933.53
2023-05-19T16:59:29.276Z,101928.94
2023-05-19T17:01:59.468Z,101926.06
2023-05-19T17:04:30.758Z,101926.81
2023-05-19T17:07:01.210Z,101931.28
2023-05-19T17:09:31.515Z,101928.22
2023-05-19T17:12:01.703Z,101927.53
2023-05-19T17:14:31.878Z,101928.50
2023-05-19T17:17:02.293Z,101927.91
2023-05-19T17:19:32.680Z,101929.38
2023-05-19T17:22:02.964Z,101936.16
2023-05-19T17:24:33.474Z,101938.34
2023-05-19T17:27:03.847Z,101930.59
2023-05-19T17:29:34.701Z,101931.53
2023-05-19T17:32:07.601Z,101937.31
2023-05-19T17:34:38.557Z,101940.38
2023-05-19T17:37:08.752Z,101935.34
2023-05-19T17:39:38.918Z,101942.75
2023-05-19T17:42:11.141Z,101944.25
2023-05-19T17:44:38.743Z,101931.91
2023-05-19T17:47:08.311Z,101943.31
2023-05-19T17:49:35.690Z,101939.38
2023-05-19T17:52:04.746Z,101945.63
2023-05-19T17:54:33.194Z,101952.44
2023-05-19T17:57:10.171Z,101953.09
2023-05-19T17:59:40.381Z,101947.34
2023-05-19T18:02:12.119Z,101943.88
2023-05-19T18:04:42.998Z,101954.94
2023-05-19T18:07:14.790Z,101948.31
2023-05-19T18:09:46.635Z,101943.09
2023-05-19T18:12:17.728Z,101943.94
2023-05-19T18:14:47.897Z,101937.69
2023-05-19T18:17:18.066Z,101935.88
2023-05-19T18:19:47.856Z,101941.66
2023-05-19T18:22:17.903Z,101938.72
2023-05-19T18:24:48.089Z,101949.06
2023-05-19T18:27:17.926Z,101944.44
2023-05-19T18:29:47.967Z,101947.56
2023-05-19T18:32:18.126Z,101944.63
2023-05-19T18:34:48.153Z,101940.66
2023-05-19T18:37:18.446Z,101947.88
2023-05-19T18:39:48.594Z,101948.88
2023-05-19T18:42:18.623Z,101946.75
2023-05-19T18:44:48.665Z,101954.13
2023-05-19T18:47:22.931Z,101945.06
2023-05-19T18:49:53.368Z,101957.06
2023-05-19T18:52:22.982Z,101958.00
2023-05-19T18:54:52.996Z,101955.69
2023-05-19T18:57:22.862Z,101964.88
2023-05-19T18:59:53.073Z,101970.13
2023-05-19T19:02:23.276Z,101964.31
2023-05-19T19:04:53.121Z,101970.03
2023-05-19T19:07:26.937Z,101972.16
2023-05-19T19:09:56.165Z,101965.19
2023-05-19T19:12:26.458Z,101970.09
2023-05-19T19:14:56.773Z,101965.00
2023-05-19T19:17:26.866Z,101967.72
2023-05-19T19:19:57.363Z,101971.59
2023-05-19T19:22:27.158Z,101966.97
2023-05-19T19:24:57.044Z,101972.16
2023-05-19T19:27:31.159Z,101972.97
2023-05-19T19:30:02.186Z,101975.34
2023-05-19T19:32:32.673Z,101970.53
2023-05-19T19:35:02.931Z,101974.03
2023-05-19T19:37:32.700Z,101982.22
2023-05-19T19:40:02.619Z,101979.56
2023-05-19T19:42:32.522Z,101983.41
2023-05-19T19:45:02.559Z,101977.94
2023-05-19T19:47:32.987Z,101978.06
2023-05-19T19:50:05.872Z,101980.97
2023-05-19T19:52:36.439Z,101978.09
2023-05-19T19:55:06.960Z,101980.19
2023-05-19T19:57:37.062Z,101982.75
2023-05-19T20:00:09.342Z,101988.94
2023-05-19T20:02:51.371Z,101981.53
2023-05-19T20:05:29.011Z,101982.59
2023-05-19T20:07:56.213Z,101977.94
2023-05-19T20:10:26.189Z,101983.91
2023-05-19T20:12:54.553Z,101979.28
2023-05-19T20:15:23.219Z,101988.25
2023-05-19T20:17:51.432Z,101986.41
2023-05-19T20:20:19.910Z,101986.72
2023-05-19T20:22:48.310Z,101988.97
2023-05-19T20:25:16.717Z,101989.28
2023-05-19T20:27:45.099Z,101989.28
2023-05-19T20:30:13.551Z,101992.28
2023-05-19T20:32:42.039Z,101996.91
2023-05-19T20:35:10.775Z,101994.66
2023-05-19T20:37:40.134Z,101999.19
2023-05-19T20:40:11.333Z,102004.97
2023-05-19T20:42:41.114Z,102000.13
2023-05-19T20:45:11.784Z,102005.47
2023-05-19T20:47:41.997Z,102008.88
2023-05-19T20:50:12.262Z,102010.13
2023-05-19T20:52:42.483Z,102009.78
2023-05-19T20:55:12.704Z,102008.97
2023-05-19T20:57:44.649Z,102009.38
2023-05-19T21:00:15.219Z,102010.22
2023-05-19T21:02:45.627Z,102013.75
2023-05-19T21:05:15.901Z,102010.22
2023-05-19T21:07:46.200Z,101997.28
2023-05-19T21:10:18.047Z,102008.50
2023-05-19T21:12:48.559Z,101999.72
2023-05-19T21:15:19.071Z,102001.69
2023-05-19T21:17:49.324Z,101999.50
2023-05-19T21:20:19.712Z,101999.00
2023-05-19T21:22:49.915Z,102005.66
2023-05-19T21:25:20.091Z,102009.97
2023-05-19T21:27:51.562Z,102019.53
2023-05-19T21:30:23.663Z,102015.22
2023-05-19T21:32:53.994Z,102025.91
2023-05-19T21:35:24.349Z,102026.53
2023-05-19T21:37:54.600Z,102030.28
2023-05-19T21:40:24.881Z,102028.41
2023-05-19T21:42:55.022Z,102026.81
2023-05-19T21:45:25.416Z,102030.69
2023-05-19T21:47:55.599Z,102036.56
2023-05-19T21:50:25.842Z,102039.13
2023-05-19T21:52:56.028Z,102038.88
2023-05-19T21:55:26.270Z,102034.50
2023-05-19T21:57:56.447Z,102026.16
2023-05-19T22:00:26.603Z,102034.28
2023-05-19T22:02:57.451Z,102031.88
2023-05-19T22:05:31.286Z,102026.66
2023-05-19T22:08:01.843Z,102028.97
2023-05-19T22:10:32.238Z,102035.66
2023-05-19T22:13:02.705Z,102034.53
2023-05-19T22:15:32.848Z,102031.47
2023-05-19T22:18:03.124Z,102037.84
2023-05-19T22:20:33.560Z,102032.81
2023-05-19T22:23:04.505Z,102036.94
2023-05-19T22:25:34.775Z,102036.13
2023-05-19T22:28:07.661Z,102045.34
2023-05-19T22:30:40.999Z,102039.25
2023-05-19T22:33:13.258Z,102044.03
2023-05-19T22:35:43.468Z,102038.84
2023-05-19T22:38:13.681Z,102043.63
2023-05-19T22:40:44.104Z,102048.91
2023-05-19T22:43:14.275Z,102050.84
2023-05-19T22:45:44.590Z,102049.50
2023-05-19T22:48:14.816Z,102050.66
2023-05-19T22:50:45.273Z,102040.16
2023-05-19T22:53:15.478Z,102045.22
2023-05-19T22:55:45.853Z,102047.50
2023-05-19T22:58:16.055Z,102050.63
2023-05-19T23:00:46.276Z,102050.97
2023-05-19T23:03:16.517Z,102049.06
2023-05-19T23:05:46.700Z,102050.72
2023-05-19T23:08:15.217Z,102048.75
2023-05-19T23:10:44.733Z,102046.53
2023-05-19T23:13:16.061Z,102046.00
2023-05-19T23:15:46.301Z,102048.19
2023-05-19T23:18:16.482Z,102038.50
2023-05-19T23:20:46.620Z,102042.69
2023-05-19T23:23:17.262Z,102036.84
2023-05-19T23:25:45.281Z,102039.88
2023-05-19T23:28:13.629Z,102028.19
2023-05-19T23:30:42.060Z,102032.97
2023-05-19T23:33:10.550Z,102044.06
2023-05-19T23:35:39.760Z,102036.31
2023-05-19T23:38:07.408Z,102035.78
2023-05-19T23:40:35.927Z,102036.06
2023-05-19T23:43:04.221Z,102035.22
2023-05-19T23:45:33.151Z,102033.28
2023-05-19T23:48:01.167Z,102030.28
2023-05-19T23:50:29.537Z,102029.97
2023-05-19T23:52:57.845Z,102023.66
2023-05-19T23:55:26.366Z,102029.75
2023-05-19T23:57:54.675Z,102029.53
